x

South Santa Rosa Is. Ca (46069) Wave Buoy

6:50am - Wed 1st Oct 2014 All times are PDT. -7 hours from GMT.

  • Sig Wave height 7.9ft
  • Peak Period 9s
  • Average Period 7s
  • Wind
    9mph, 11mph gusts
  • Sea Temp 61°f
  • 空気 Temp 61°f
  • Sea Pressure 1007.8mb
  • South Santa Rosa Is. Ca
  • South Santa Rosa Is. Ca

More Historic Weather Station data

Upgrade to MSW Pro to gain access to the past 30 days of data for over 8000 Wavebouys and Weather Stations around the globe.

Join Pro

Comparision Forecast

View Surf forecast
   
Wed 10/01 6:50am 8ft 9s 7s 9 11 mph 1007.8mb 61f 61f
5:50am 7ft 7s 7s 13 18 mph 1007.3mb 61f 61f
4:50am 7.5ft 8s 7s 16 18 mph 1007.1mb 62f 62f
3:50am 8ft 8s 6s 18 22 mph 1006.7mb 62f 62f
2:50am 8ft 8s 6s 20 25 mph 1007mb 62f 62f
1:50am 8ft 8s 6s 20 29 mph 1007.1mb 63f 62f
12:50am 8ft 8s 6s 22 27 mph 1007.4mb 63f 62f
Tue 09/30 11:50pm 8ft 8s 6s 27 34 mph 1007.5mb 63f 62f
10:50pm 8ft 8s 6s 27 34 mph 1007.8mb 63f 62f
9:50pm 9ft 8s 6s 27 34 mph 1008mb 63f 62f
8:50pm 9ft 8s 6s 27 31 mph 1008.3mb 64f 62f
7:50pm 8.5ft 8s 6s 25 31 mph 1008.5mb 64f 62f
6:50pm 9ft 8s 6s 27 34 mph 1008.4mb 64f 62f
5:50pm 9ft 8s 6s 29 34 mph 1008mb 64f 63f
4:50pm 8ft 8s 6s 27 34 mph 1008.4mb 64f 63f
3:50pm 7.5ft 8s 6s 27 31 mph 1008.9mb 64f 62f
2:50pm 7ft 8s 6s 25 31 mph 1009.2mb 64f 62f
1:50pm 7ft 8s 6s 20 25 mph 1010.2mb 64f 63f
12:50pm 7ft 8s 6s 22 27 mph 1010.5mb 64f 63f
11:50am 7ft 8s 6s 20 25 mph 1011mb 64f 63f
10:50am 7ft 8s 6s 22 29 mph 1010.9mb 64f 63f
9:50am 7ft 8s 6s 22 29 mph 1011mb 64f 63f
8:50am 6.5ft 7s 6s 25 29 mph 1010.7mb 64f 63f
7:50am 6.5ft 7s 6s 22 27 mph 1010.5mb 64f 63f
6:50am 6ft 8s 6s 20 25 mph 1010.3mb 64f 63f
5:50am 6ft 7s 6s 20 25 mph 1010.2mb 64f 63f
4:50am 6ft 7s 5s 18 22 mph 1010mb 64f 64f
3:50am 6.5ft 7s 6s 20 25 mph 1010.1mb 64f 63f
2:50am 7ft 7s 5s 22 27 mph 1010.6mb 64f 63f
1:50am 8ft 7s 6s 27 31 mph 1010.8mb 64f 64f
Mon 09/29 11:50pm 6ft 8s 5s 22 27 mph 1011.3mb 65f 64f
10:50pm 5.5ft 7s 5s 25 29 mph 1011.4mb 65f 64f
9:50pm 6ft 6s 5s 22 27 mph 1011.9mb 65f 64f
8:50pm 6ft 6s 5s 20 25 mph 1011.9mb 65f 64f
7:50pm 6.5ft 7s 5s 22 27 mph 1011.4mb 65f 64f
6:50pm 6.5ft 8s 6s 22 29 mph 1011.5mb 65f 64f
5:50pm 6ft 9s 6s 20 25 mph 1011.7mb 65f 64f
4:50pm 5.5ft 10s 6s 18 20 mph 1011.9mb 66f 64f
3:50pm 5ft 8s 6s 18 22 mph 1012mb 65f 64f
2:50pm 5ft 10s 6s 20 22 mph 1012.3mb 65f 64f
1:50pm 5ft 10s 5s 18 20 mph 1012.9mb 65f 64f
12:50pm 5ft 9s 5s 18 20 mph 1013.5mb 65f 63f
11:50am 5ft 9s 6s 16 20 mph 1013.6mb 65f 63f
10:50am 5ft 9s 6s 18 20 mph 1014mb 65f 63f
9:50am 5ft 10s 6s 20 22 mph 1013.9mb 65f 63f
8:50am 5ft 10s 6s 18 20 mph 1013.9mb 65f 63f
7:50am 5.5ft 10s 6s 18 20 mph 1013.5mb 65f 63f
6:50am 5ft 9s 7s 16 18 mph 1013.1mb 65f 63f
5:50am 5ft 10s 7s 13 16 mph 1013mb 65f 63f
4:50am 5ft 9s 6s 16 18 mph 1012.7mb 65f 63f
3:50am 5ft 10s 6s 18 20 mph 1012.5mb 65f 63f
2:50am 5ft 10s 6s 18 20 mph 1012.8mb 65f 63f
12:50am 5ft 11s 6s 16 20 mph 1012.7mb 65f 64f
Sun 09/28 11:50pm 5.5ft 10s 6s 16 18 mph 1013mb 65f 64f
9:50pm 6.5ft 10s 6s 16 20 mph 1013mb 65f 64f
8:50pm 6.5ft 10s 7s 16 20 mph 1012.7mb 65f 64f
7:50pm 6ft 10s 7s 18 20 mph 1012.3mb 66f 64f
6:50pm 6ft 11s 7s 16 18 mph 1012.1mb 66f 65f
5:50pm 8ft 10s 7s 18 20 mph 1012.2mb 67f 65f
4:50pm 6.5ft 9s 7s 16 18 mph 1012.4mb 67f 65f
3:50pm 6.5ft 11s 7s 13 18 mph 1012.4mb 67f 65f
2:50pm 7ft 10s 7s 16 18 mph 1012.5mb 67f 65f
1:50pm 6.5ft 9s 7s 13 16 mph 1012.9mb 67f 65f
12:50pm 6.5ft 8s 7s 16 20 mph 1013.2mb 66f 64f
11:50am 7.5ft 9s 7s 18 20 mph 1013.3mb 66f 65f
10:50am 7.5ft 11s 7s 16 18 mph 1013.5mb 66f 64f
9:50am 7ft 10s 7s 18 20 mph 1013.2mb 66f 64f
8:50am 8ft 9s 7s 18 22 mph 1013mb 66f 64f
7:50am 7.5ft 11s 7s 18 20 mph 1012.6mb 66f 64f
6:50am 7.5ft 10s 7s 22 27 mph 1011.7mb 66f 65f
5:50am 8ft 8s 7s 20 25 mph 1011.3mb 67f 64f
4:50am 8ft 8s 7s 25 29 mph 1010.6mb 67f 64f
3:50am 7.5ft 8s 6s 22 29 mph 1010.7mb 66f 64f
2:50am 8ft 8s 6s 25 29 mph 1010.2mb 65f 64f
1:50am 8ft 8s 6s 27 31 mph 1010.3mb 65f 64f
12:50am 8ft 8s 6s 27 31 mph 1010.4mb 64f 64f
Sat 09/27 11:50pm 8ft 7s 6s 22 27 mph 1011.3mb 64f 64f
10:50pm 8ft 11s 6s 25 31 mph 1011.3mb 65f 64f
9:50pm 8ft 8s 6s 27 31 mph 1011.2mb 65f 64f
8:50pm 8ft 11s 6s 27 36 mph 1010.6mb 65f 64f
7:50pm 7ft 10s 5s 29 34 mph 1009.8mb 65f 64f
6:50pm 6.5ft 10s 5s 27 31 mph 1009.9mb 65f 64f
5:50pm 7.5ft 11s 6s 27 34 mph 1009.8mb 65f 65f
4:50pm 6.5ft 11s 6s 27 31 mph 1010.3mb 65f 65f
3:50pm 7ft 11s 6s 25 31 mph 1010.7mb 66f 65f